sensor_id;sensor_type;location;lat;lon;timestamp;P1;durP1;ratioP1;P2;durP2;ratioP2
57313;SDS011;53202;50.976;18.216;2023-11-21T00:00:07;11.20;;;5.10;;
57313;SDS011;53202;50.976;18.216;2023-11-21T00:01:12;18.40;;;7.00;;
57313;SDS011;53202;50.976;18.216;2023-11-21T00:02:13;10.10;;;4.50;;
57313;SDS011;53202;50.976;18.216;2023-11-21T00:03:14;8.80;;;5.00;;
57313;SDS011;53202;50.976;18.216;2023-11-21T00:04:15;10.50;;;5.10;;
57313;SDS011;53202;50.976;18.216;2023-11-21T00:05:16;17.50;;;5.70;;
57313;SDS011;53202;50.976;18.216;2023-11-21T00:06:17;15.20;;;5.60;;
57313;SDS011;53202;50.976;18.216;2023-11-21T00:07:19;10.10;;;5.60;;
57313;SDS011;53202;50.976;18.216;2023-11-21T00:08:21;9.00;;;5.00;;
57313;SDS011;53202;50.976;18.216;2023-11-21T00:09:22;16.20;;;5.30;;
57313;SDS011;53202;50.976;18.216;2023-11-21T00:10:23;18.20;;;6.00;;
57313;SDS011;53202;50.976;18.216;2023-11-21T00:11:24;12.00;;;4.50;;
57313;SDS011;53202;50.976;18.216;2023-11-21T00:12:25;8.90;;;5.90;;
57313;SDS011;53202;50.976;18.216;2023-11-21T00:13:28;12.70;;;6.20;;
57313;SDS011;53202;50.976;18.216;2023-11-21T00:14:29;14.90;;;6.10;;
57313;SDS011;53202;50.976;18.216;2023-11-21T00:15:30;10.40;;;5.80;;
57313;SDS011;53202;50.976;18.216;2023-11-21T00:16:31;15.50;;;6.40;;
57313;SDS011;53202;50.976;18.216;2023-11-21T00:17:32;10.90;;;5.50;;
57313;SDS011;53202;50.976;18.216;2023-11-21T00:18:33;10.90;;;5.30;;
57313;SDS011;53202;50.976;18.216;2023-11-21T00:19:34;13.80;;;6.80;;
57313;SDS011;53202;50.976;18.216;2023-11-21T00:20:35;14.70;;;5.20;;
57313;SDS011;53202;50.976;18.216;2023-11-21T00:21:36;13.10;;;6.00;;
57313;SDS011;53202;50.976;18.216;2023-11-21T00:22:37;9.40;;;4.90;;
57313;SDS011;53202;50.976;18.216;2023-11-21T00:23:38;17.30;;;6.00;;
57313;SDS011;53202;50.976;18.216;2023-11-21T00:24:39;9.40;;;5.20;;
57313;SDS011;53202;50.976;18.216;2023-11-21T00:25:40;8.70;;;4.40;;
57313;SDS011;53202;50.976;18.216;2023-11-21T00:26:41;14.00;;;4.60;;
57313;SDS011;53202;50.976;18.216;2023-11-21T00:27:42;12.80;;;5.10;;
57313;SDS011;53202;50.976;18.216;2023-11-21T00:28:43;9.90;;;4.70;;
57313;SDS011;53202;50.976;18.216;2023-11-21T00:29:45;9.50;;;4.80;;
57313;SDS011;53202;50.976;18.216;2023-11-21T00:30:46;9.20;;;4.30;;
57313;SDS011;53202;50.976;18.216;2023-11-21T00:31:47;7.50;;;4.20;;
57313;SDS011;53202;50.976;18.216;2023-11-21T00:32:48;20.00;;;4.80;;
57313;SDS011;53202;50.976;18.216;2023-11-21T00:33:49;11.50;;;4.40;;
57313;SDS011;53202;50.976;18.216;2023-11-21T00:34:50;13.10;;;5.30;;
57313;SDS011;53202;50.976;18.216;2023-11-21T00:35:51;10.10;;;4.80;;
57313;SDS011;53202;50.976;18.216;2023-11-21T00:36:52;11.20;;;5.20;;
57313;SDS011;53202;50.976;18.216;2023-11-21T00:37:53;11.00;;;5.10;;
57313;SDS011;53202;50.976;18.216;2023-11-21T00:38:54;12.20;;;5.30;;
57313;SDS011;53202;50.976;18.216;2023-11-21T00:39:56;11.80;;;5.10;;
57313;SDS011;53202;50.976;18.216;2023-11-21T00:40:57;10.90;;;5.20;;
57313;SDS011;53202;50.976;18.216;2023-11-21T00:41:58;10.60;;;5.00;;
57313;SDS011;53202;50.976;18.216;2023-11-21T00:42:59;11.00;;;5.20;;
57313;SDS011;53202;50.976;18.216;2023-11-21T00:44:00;11.20;;;5.10;;
57313;SDS011;53202;50.976;18.216;2023-11-21T00:45:01;9.80;;;4.50;;
57313;SDS011;53202;50.976;18.216;2023-11-21T00:46:04;15.20;;;5.90;;
57313;SDS011;53202;50.976;18.216;2023-11-21T00:47:07;14.30;;;5.60;;
57313;SDS011;53202;50.976;18.216;2023-11-21T00:48:08;10.90;;;5.30;;
57313;SDS011;53202;50.976;18.216;2023-11-21T00:49:09;12.60;;;5.10;;
57313;SDS011;53202;50.976;18.216;2023-11-21T00:50:11;17.80;;;5.00;;
57313;SDS011;53202;50.976;18.216;2023-11-21T00:51:12;6.80;;;3.60;;
57313;SDS011;53202;50.976;18.216;2023-11-21T00:52:13;9.40;;;5.00;;
57313;SDS011;53202;50.976;18.216;2023-11-21T00:53:14;7.10;;;4.00;;
57313;SDS011;53202;50.976;18.216;2023-11-21T00:54:15;9.10;;;4.20;;
57313;SDS011;53202;50.976;18.216;2023-11-21T00:55:17;8.40;;;4.10;;
57313;SDS011;53202;50.976;18.216;2023-11-21T00:56:18;12.70;;;4.10;;
57313;SDS011;53202;50.976;18.216;2023-11-21T00:57:19;18.80;;;5.30;;
57313;SDS011;53202;50.976;18.216;2023-11-21T00:58:20;9.00;;;5.10;;
57313;SDS011;53202;50.976;18.216;2023-11-21T00:59:22;11.90;;;5.30;;
57313;SDS011;53202;50.976;18.216;2023-11-21T01:00:23;8.40;;;4.60;;
57313;SDS011;53202;50.976;18.216;2023-11-21T01:01:24;13.60;;;6.30;;
57313;SDS011;53202;50.976;18.216;2023-11-21T01:02:25;11.70;;;6.80;;
57313;SDS011;53202;50.976;18.216;2023-11-21T01:03:26;10.20;;;5.60;;
57313;SDS011;53202;50.976;18.216;2023-11-21T01:04:27;9.10;;;5.20;;
57313;SDS011;53202;50.976;18.216;2023-11-21T01:05:28;11.60;;;5.60;;
57313;SDS011;53202;50.976;18.216;2023-11-21T01:06:30;8.70;;;5.40;;
57313;SDS011;53202;50.976;18.216;2023-11-21T01:07:30;14.10;;;6.20;;
57313;SDS011;53202;50.976;18.216;2023-11-21T01:08:32;10.60;;;5.70;;
57313;SDS011;53202;50.976;18.216;2023-11-21T01:09:33;10.90;;;6.50;;
57313;SDS011;53202;50.976;18.216;2023-11-21T01:10:34;12.60;;;6.30;;
57313;SDS011;53202;50.976;18.216;2023-11-21T01:11:36;7.60;;;4.40;;
57313;SDS011;53202;50.976;18.216;2023-11-21T01:12:37;8.20;;;4.20;;
57313;SDS011;53202;50.976;18.216;2023-11-21T01:13:39;12.30;;;3.70;;
57313;SDS011;53202;50.976;18.216;2023-11-21T01:14:40;8.10;;;4.50;;
57313;SDS011;53202;50.976;18.216;2023-11-21T01:15:41;8.80;;;4.00;;
57313;SDS011;53202;50.976;18.216;2023-11-21T01:16:42;8.30;;;5.10;;
57313;SDS011;53202;50.976;18.216;2023-11-21T01:17:43;7.30;;;5.00;;
57313;SDS011;53202;50.976;18.216;2023-11-21T01:18:44;6.90;;;4.40;;
57313;SDS011;53202;50.976;18.216;2023-11-21T01:19:45;6.70;;;3.90;;
57313;SDS011;53202;50.976;18.216;2023-11-21T01:20:48;12.00;;;3.80;;
57313;SDS011;53202;50.976;18.216;2023-11-21T01:21:49;10.70;;;4.90;;
57313;SDS011;53202;50.976;18.216;2023-11-21T01:22:50;12.70;;;4.70;;
57313;SDS011;53202;50.976;18.216;2023-11-21T01:23:51;7.00;;;4.50;;
57313;SDS011;53202;50.976;18.216;2023-11-21T01:24:53;6.20;;;4.00;;
57313;SDS011;53202;50.976;18.216;2023-11-21T01:25:55;6.30;;;4.20;;
57313;SDS011;53202;50.976;18.216;2023-11-21T01:26:57;5.60;;;3.70;;
57313;SDS011;53202;50.976;18.216;2023-11-21T01:27:58;6.50;;;3.80;;
57313;SDS011;53202;50.976;18.216;2023-11-21T01:28:59;7.10;;;4.00;;
57313;SDS011;53202;50.976;18.216;2023-11-21T01:30:00;10.10;;;4.40;;
57313;SDS011;53202;50.976;18.216;2023-11-21T01:31:02;6.60;;;3.10;;
57313;SDS011;53202;50.976;18.216;2023-11-21T01:32:03;13.30;;;3.70;;
57313;SDS011;53202;50.976;18.216;2023-11-21T01:33:04;6.50;;;3.00;;
57313;SDS011;53202;50.976;18.216;2023-11-21T01:34:05;5.90;;;2.80;;
57313;SDS011;53202;50.976;18.216;2023-11-21T01:35:06;5.40;;;2.80;;
57313;SDS011;53202;50.976;18.216;2023-11-21T01:36:08;4.80;;;2.50;;
57313;SDS011;53202;50.976;18.216;2023-11-21T01:37:09;7.10;;;2.80;;
57313;SDS011;53202;50.976;18.216;2023-11-21T01:38:12;7.00;;;2.70;;
57313;SDS011;53202;50.976;18.216;2023-11-21T01:39:13;6.70;;;2.80;;
57313;SDS011;53202;50.976;18.216;2023-11-21T01:40:16;6.00;;;2.80;;
57313;SDS011;53202;50.976;18.216;2023-11-21T01:41:17;9.70;;;3.10;;
57313;SDS011;53202;50.976;18.216;2023-11-21T01:42:18;8.30;;;3.00;;
57313;SDS011;53202;50.976;18.216;2023-11-21T01:43:19;3.40;;;2.80;;
57313;SDS011;53202;50.976;18.216;2023-11-21T01:44:20;4.70;;;3.30;;
57313;SDS011;53202;50.976;18.216;2023-11-21T01:45:21;7.90;;;2.70;;
57313;SDS011;53202;50.976;18.216;2023-11-21T01:46:22;5.20;;;2.70;;
57313;SDS011;53202;50.976;18.216;2023-11-21T01:47:24;9.50;;;2.90;;
57313;SDS011;53202;50.976;18.216;2023-11-21T01:48:25;5.70;;;2.90;;
57313;SDS011;53202;50.976;18.216;2023-11-21T01:49:28;5.90;;;3.00;;
57313;SDS011;53202;50.976;18.216;2023-11-21T01:50:29;5.40;;;2.60;;
57313;SDS011;53202;50.976;18.216;2023-11-21T01:51:30;4.90;;;2.60;;
57313;SDS011;53202;50.976;18.216;2023-11-21T01:52:31;4.20;;;2.70;;
57313;SDS011;53202;50.976;18.216;2023-11-21T01:53:33;5.50;;;3.30;;
57313;SDS011;53202;50.976;18.216;2023-11-21T01:54:34;4.50;;;2.90;;
57313;SDS011;53202;50.976;18.216;2023-11-21T01:55:36;4.50;;;2.40;;
57313;SDS011;53202;50.976;18.216;2023-11-21T01:56:38;17.30;;;2.90;;
57313;SDS011;53202;50.976;18.216;2023-11-21T01:57:40;6.20;;;3.10;;
57313;SDS011;53202;50.976;18.216;2023-11-21T01:58:41;7.60;;;3.20;;
57313;SDS011;53202;50.976;18.216;2023-11-21T01:59:43;5.10;;;3.20;;
57313;SDS011;53202;50.976;18.216;2023-11-21T02:00:45;6.60;;;3.10;;
57313;SDS011;53202;50.976;18.216;2023-11-21T02:01:46;6.60;;;3.90;;
57313;SDS011;53202;50.976;18.216;2023-11-21T02:02:48;5.50;;;3.60;;
57313;SDS011;53202;50.976;18.216;2023-11-21T02:03:49;10.60;;;3.50;;
57313;SDS011;53202;50.976;18.216;2023-11-21T02:04:50;7.80;;;3.80;;
57313;SDS011;53202;50.976;18.216;2023-11-21T02:05:51;7.10;;;3.40;;
57313;SDS011;53202;50.976;18.216;2023-11-21T02:06:53;8.30;;;3.30;;
57313;SDS011;53202;50.976;18.216;2023-11-21T02:07:55;6.10;;;3.70;;
57313;SDS011;53202;50.976;18.216;2023-11-21T02:08:56;7.20;;;3.50;;
57313;SDS011;53202;50.976;18.216;2023-11-21T02:09:57;5.60;;;3.50;;
57313;SDS011;53202;50.976;18.216;2023-11-21T02:10:59;4.40;;;2.90;;
57313;SDS011;53202;50.976;18.216;2023-11-21T02:12:00;3.70;;;2.70;;
57313;SDS011;53202;50.976;18.216;2023-11-21T02:13:02;5.70;;;2.90;;
57313;SDS011;53202;50.976;18.216;2023-11-21T02:14:04;9.00;;;3.20;;
57313;SDS011;53202;50.976;18.216;2023-11-21T02:15:08;17.20;;;2.60;;
57313;SDS011;53202;50.976;18.216;2023-11-21T02:16:15;6.60;;;3.00;;
57313;SDS011;53202;50.976;18.216;2023-11-21T02:17:16;7.20;;;3.20;;
57313;SDS011;53202;50.976;18.216;2023-11-21T02:18:18;8.00;;;2.80;;
57313;SDS011;53202;50.976;18.216;2023-11-21T02:19:20;3.90;;;2.40;;
57313;SDS011;53202;50.976;18.216;2023-11-21T02:21:28;6.80;;;2.70;;
57313;SDS011;53202;50.976;18.216;2023-11-21T02:22:31;5.30;;;2.30;;
57313;SDS011;53202;50.976;18.216;2023-11-21T02:23:34;9.50;;;2.70;;
57313;SDS011;53202;50.976;18.216;2023-11-21T02:24:36;6.00;;;3.20;;
57313;SDS011;53202;50.976;18.216;2023-11-21T02:25:37;5.20;;;2.50;;
57313;SDS011;53202;50.976;18.216;2023-11-21T02:26:38;5.50;;;2.70;;
57313;SDS011;53202;50.976;18.216;2023-11-21T02:27:39;7.10;;;3.10;;
57313;SDS011;53202;50.976;18.216;2023-11-21T02:28:40;9.40;;;3.50;;
57313;SDS011;53202;50.976;18.216;2023-11-21T02:29:42;3.50;;;2.40;;
57313;SDS011;53202;50.976;18.216;2023-11-21T02:30:43;5.70;;;2.50;;
57313;SDS011;53202;50.976;18.216;2023-11-21T02:31:45;9.80;;;2.30;;
57313;SDS011;53202;50.976;18.216;2023-11-21T02:32:48;7.50;;;3.10;;
57313;SDS011;53202;50.976;18.216;2023-11-21T02:33:49;6.70;;;2.60;;
57313;SDS011;53202;50.976;18.216;2023-11-21T02:34:50;4.80;;;2.30;;
57313;SDS011;53202;50.976;18.216;2023-11-21T02:35:51;5.50;;;2.90;;
57313;SDS011;53202;50.976;18.216;2023-11-21T02:36:55;5.90;;;2.50;;
57313;SDS011;53202;50.976;18.216;2023-11-21T02:37:57;5.00;;;2.90;;
57313;SDS011;53202;50.976;18.216;2023-11-21T02:38:58;6.90;;;2.90;;
57313;SDS011;53202;50.976;18.216;2023-11-21T02:39:59;9.30;;;3.50;;
57313;SDS011;53202;50.976;18.216;2023-11-21T02:41:00;7.50;;;2.90;;
57313;SDS011;53202;50.976;18.216;2023-11-21T02:42:01;8.00;;;2.80;;
57313;SDS011;53202;50.976;18.216;2023-11-21T02:43:02;6.60;;;3.00;;
57313;SDS011;53202;50.976;18.216;2023-11-21T02:44:06;9.80;;;2.80;;
57313;SDS011;53202;50.976;18.216;2023-11-21T02:45:07;5.70;;;2.90;;
57313;SDS011;53202;50.976;18.216;2023-11-21T02:46:09;7.60;;;3.10;;
57313;SDS011;53202;50.976;18.216;2023-11-21T02:47:10;8.40;;;2.90;;
57313;SDS011;53202;50.976;18.216;2023-11-21T02:48:11;4.70;;;2.30;;
57313;SDS011;53202;50.976;18.216;2023-11-21T02:49:12;4.30;;;2.60;;
57313;SDS011;53202;50.976;18.216;2023-11-21T02:50:13;6.60;;;3.10;;
57313;SDS011;53202;50.976;18.216;2023-11-21T02:51:14;6.50;;;3.50;;
57313;SDS011;53202;50.976;18.216;2023-11-21T02:52:16;6.30;;;2.90;;
57313;SDS011;53202;50.976;18.216;2023-11-21T02:53:17;8.30;;;3.50;;
57313;SDS011;53202;50.976;18.216;2023-11-21T02:54:18;8.50;;;3.30;;
57313;SDS011;53202;50.976;18.216;2023-11-21T02:55:22;6.60;;;3.60;;
57313;SDS011;53202;50.976;18.216;2023-11-21T02:56:25;7.70;;;3.90;;
57313;SDS011;53202;50.976;18.216;2023-11-21T02:57:26;9.50;;;4.60;;
57313;SDS011;53202;50.976;18.216;2023-11-21T02:58:27;9.70;;;4.90;;
57313;SDS011;53202;50.976;18.216;2023-11-21T02:59:29;7.00;;;4.50;;
57313;SDS011;53202;50.976;18.216;2023-11-21T03:00:30;6.80;;;4.90;;
57313;SDS011;53202;50.976;18.216;2023-11-21T03:01:31;12.50;;;6.50;;
57313;SDS011;53202;50.976;18.216;2023-11-21T03:02:32;10.90;;;6.70;;
57313;SDS011;53202;50.976;18.216;2023-11-21T03:03:33;13.30;;;7.60;;
57313;SDS011;53202;50.976;18.216;2023-11-21T03:04:34;14.60;;;7.60;;
57313;SDS011;53202;50.976;18.216;2023-11-21T03:05:35;14.90;;;8.50;;
57313;SDS011;53202;50.976;18.216;2023-11-21T03:06:37;15.20;;;9.30;;
57313;SDS011;53202;50.976;18.216;2023-11-21T03:07:38;12.70;;;8.00;;
57313;SDS011;53202;50.976;18.216;2023-11-21T03:08:40;16.50;;;7.90;;
57313;SDS011;53202;50.976;18.216;2023-11-21T03:09:42;17.60;;;8.20;;
57313;SDS011;53202;50.976;18.216;2023-11-21T03:10:43;27.10;;;9.90;;
57313;SDS011;53202;50.976;18.216;2023-11-21T03:11:44;25.40;;;11.50;;
57313;SDS011;53202;50.976;18.216;2023-11-21T03:12:45;29.90;;;13.70;;
57313;SDS011;53202;50.976;18.216;2023-11-21T03:13:46;35.30;;;14.20;;
57313;SDS011;53202;50.976;18.216;2023-11-21T03:14:47;42.30;;;16.20;;
57313;SDS011;53202;50.976;18.216;2023-11-21T03:15:48;42.70;;;17.90;;
57313;SDS011;53202;50.976;18.216;2023-11-21T03:16:49;46.30;;;17.40;;
57313;SDS011;53202;50.976;18.216;2023-11-21T03:17:50;45.80;;;16.60;;
57313;SDS011;53202;50.976;18.216;2023-11-21T03:18:51;33.40;;;13.20;;
57313;SDS011;53202;50.976;18.216;2023-11-21T03:19:52;31.10;;;13.00;;
57313;SDS011;53202;50.976;18.216;2023-11-21T03:20:54;18.50;;;8.40;;
57313;SDS011;53202;50.976;18.216;2023-11-21T03:21:55;17.30;;;8.10;;
57313;SDS011;53202;50.976;18.216;2023-11-21T03:22:56;19.00;;;7.80;;
57313;SDS011;53202;50.976;18.216;2023-11-21T03:24:00;13.60;;;5.30;;
57313;SDS011;53202;50.976;18.216;2023-11-21T03:25:00;13.90;;;5.70;;
57313;SDS011;53202;50.976;18.216;2023-11-21T03:26:02;13.70;;;5.80;;
57313;SDS011;53202;50.976;18.216;2023-11-21T03:27:03;8.70;;;4.70;;
57313;SDS011;53202;50.976;18.216;2023-11-21T03:28:05;12.60;;;5.80;;
57313;SDS011;53202;50.976;18.216;2023-11-21T03:29:06;15.90;;;6.50;;
57313;SDS011;53202;50.976;18.216;2023-11-21T03:30:07;14.90;;;6.40;;
57313;SDS011;53202;50.976;18.216;2023-11-21T03:31:09;19.60;;;8.20;;
57313;SDS011;53202;50.976;18.216;2023-11-21T03:32:11;22.80;;;9.20;;
57313;SDS011;53202;50.976;18.216;2023-11-21T03:33:12;20.40;;;10.30;;
57313;SDS011;53202;50.976;18.216;2023-11-21T03:34:23;25.40;;;10.00;;
57313;SDS011;53202;50.976;18.216;2023-11-21T03:35:26;25.00;;;10.00;;
57313;SDS011;53202;50.976;18.216;2023-11-21T03:36:28;32.10;;;10.50;;
57313;SDS011;53202;50.976;18.216;2023-11-21T03:37:29;43.80;;;14.20;;
57313;SDS011;53202;50.976;18.216;2023-11-21T03:38:30;32.60;;;13.50;;
57313;SDS011;53202;50.976;18.216;2023-11-21T03:39:31;34.70;;;13.60;;
57313;SDS011;53202;50.976;18.216;2023-11-21T03:40:32;32.10;;;12.50;;
57313;SDS011;53202;50.976;18.216;2023-11-21T03:41:33;34.20;;;13.20;;
57313;SDS011;53202;50.976;18.216;2023-11-21T03:42:34;28.50;;;12.10;;
57313;SDS011;53202;50.976;18.216;2023-11-21T03:43:36;25.30;;;10.20;;
57313;SDS011;53202;50.976;18.216;2023-11-21T03:44:37;23.40;;;8.10;;
57313;SDS011;53202;50.976;18.216;2023-11-21T03:45:38;22.20;;;8.70;;
57313;SDS011;53202;50.976;18.216;2023-11-21T03:46:41;23.30;;;7.90;;
57313;SDS011;53202;50.976;18.216;2023-11-21T03:47:42;16.80;;;7.20;;
57313;SDS011;53202;50.976;18.216;2023-11-21T03:48:43;21.20;;;8.00;;
57313;SDS011;53202;50.976;18.216;2023-11-21T03:49:44;20.10;;;7.50;;
57313;SDS011;53202;50.976;18.216;2023-11-21T03:50:45;18.40;;;6.90;;
57313;SDS011;53202;50.976;18.216;2023-11-21T03:51:47;12.60;;;6.80;;
57313;SDS011;53202;50.976;18.216;2023-11-21T03:52:48;15.20;;;6.20;;
57313;SDS011;53202;50.976;18.216;2023-11-21T03:53:49;14.40;;;6.20;;
57313;SDS011;53202;50.976;18.216;2023-11-21T03:54:50;17.50;;;7.10;;
57313;SDS011;53202;50.976;18.216;2023-11-21T03:55:51;16.30;;;6.70;;
57313;SDS011;53202;50.976;18.216;2023-11-21T03:56:52;14.10;;;6.30;;
57313;SDS011;53202;50.976;18.216;2023-11-21T03:57:53;19.20;;;6.60;;
57313;SDS011;53202;50.976;18.216;2023-11-21T03:58:54;14.90;;;5.70;;
57313;SDS011;53202;50.976;18.216;2023-11-21T03:59:55;10.60;;;4.80;;
57313;SDS011;53202;50.976;18.216;2023-11-21T04:00:56;14.10;;;5.70;;
57313;SDS011;53202;50.976;18.216;2023-11-21T04:01:57;9.20;;;5.00;;
57313;SDS011;53202;50.976;18.216;2023-11-21T04:02:58;17.20;;;6.40;;
57313;SDS011;53202;50.976;18.216;2023-11-21T04:03:59;13.40;;;6.00;;
57313;SDS011;53202;50.976;18.216;2023-11-21T04:05:00;10.30;;;5.30;;
57313;SDS011;53202;50.976;18.216;2023-11-21T04:06:01;11.60;;;5.50;;
57313;SDS011;53202;50.976;18.216;2023-11-21T04:07:02;13.40;;;6.50;;
57313;SDS011;53202;50.976;18.216;2023-11-21T04:08:04;12.30;;;6.00;;
57313;SDS011;53202;50.976;18.216;2023-11-21T04:09:05;11.60;;;5.50;;
57313;SDS011;53202;50.976;18.216;2023-11-21T04:10:06;11.30;;;4.60;;
57313;SDS011;53202;50.976;18.216;2023-11-21T04:11:09;15.00;;;5.00;;
57313;SDS011;53202;50.976;18.216;2023-11-21T04:12:12;11.60;;;5.30;;
57313;SDS011;53202;50.976;18.216;2023-11-21T04:13:13;10.30;;;5.00;;
57313;SDS011;53202;50.976;18.216;2023-11-21T04:14:14;9.50;;;5.30;;
57313;SDS011;53202;50.976;18.216;2023-11-21T04:15:15;15.80;;;5.30;;
57313;SDS011;53202;50.976;18.216;2023-11-21T04:16:16;10.90;;;4.60;;
57313;SDS011;53202;50.976;18.216;2023-11-21T04:17:18;11.30;;;5.30;;
57313;SDS011;53202;50.976;18.216;2023-11-21T04:18:20;9.90;;;5.60;;
57313;SDS011;53202;50.976;18.216;2023-11-21T04:19:21;11.70;;;5.00;;
57313;SDS011;53202;50.976;18.216;2023-11-21T04:20:22;15.40;;;4.80;;
57313;SDS011;53202;50.976;18.216;2023-11-21T04:21:24;11.50;;;4.90;;
57313;SDS011;53202;50.976;18.216;2023-11-21T04:22:25;9.30;;;5.20;;
57313;SDS011;53202;50.976;18.216;2023-11-21T04:23:27;17.50;;;5.80;;
57313;SDS011;53202;50.976;18.216;2023-11-21T04:24:28;9.90;;;5.00;;
57313;SDS011;53202;50.976;18.216;2023-11-21T04:25:30;10.80;;;5.70;;
57313;SDS011;53202;50.976;18.216;2023-11-21T04:26:31;14.90;;;5.30;;
57313;SDS011;53202;50.976;18.216;2023-11-21T04:27:32;13.70;;;4.40;;
57313;SDS011;53202;50.976;18.216;2023-11-21T04:28:33;8.90;;;4.50;;
57313;SDS011;53202;50.976;18.216;2023-11-21T04:29:36;9.70;;;5.10;;
57313;SDS011;53202;50.976;18.216;2023-11-21T04:30:36;11.70;;;5.50;;
57313;SDS011;53202;50.976;18.216;2023-11-21T04:31:40;13.80;;;4.40;;
57313;SDS011;53202;50.976;18.216;2023-11-21T04:32:41;9.00;;;5.40;;
57313;SDS011;53202;50.976;18.216;2023-11-21T04:33:43;15.50;;;4.60;;
57313;SDS011;53202;50.976;18.216;2023-11-21T04:34:45;11.90;;;5.40;;
57313;SDS011;53202;50.976;18.216;2023-11-21T04:35:46;10.90;;;4.90;;
57313;SDS011;53202;50.976;18.216;2023-11-21T04:36:47;14.00;;;5.40;;
57313;SDS011;53202;50.976;18.216;2023-11-21T04:37:48;15.60;;;5.60;;
57313;SDS011;53202;50.976;18.216;2023-11-21T04:38:51;13.10;;;5.10;;
57313;SDS011;53202;50.976;18.216;2023-11-21T04:39:52;10.60;;;5.10;;
57313;SDS011;53202;50.976;18.216;2023-11-21T04:40:53;20.40;;;5.20;;
57313;SDS011;53202;50.976;18.216;2023-11-21T04:41:54;10.60;;;4.90;;
57313;SDS011;53202;50.976;18.216;2023-11-21T04:42:55;11.20;;;5.00;;
57313;SDS011;53202;50.976;18.216;2023-11-21T04:43:57;8.50;;;4.20;;
57313;SDS011;53202;50.976;18.216;2023-11-21T04:44:59;13.10;;;4.60;;
57313;SDS011;53202;50.976;18.216;2023-11-21T04:46:00;10.70;;;5.00;;
57313;SDS011;53202;50.976;18.216;2023-11-21T04:47:02;7.70;;;3.80;;
57313;SDS011;53202;50.976;18.216;2023-11-21T04:48:05;6.60;;;3.50;;
57313;SDS011;53202;50.976;18.216;2023-11-21T04:49:07;8.60;;;3.50;;
57313;SDS011;53202;50.976;18.216;2023-11-21T04:50:08;7.20;;;3.80;;
57313;SDS011;53202;50.976;18.216;2023-11-21T04:51:09;13.80;;;4.10;;
57313;SDS011;53202;50.976;18.216;2023-11-21T04:52:13;6.10;;;3.10;;
57313;SDS011;53202;50.976;18.216;2023-11-21T04:53:14;7.10;;;3.30;;
57313;SDS011;53202;50.976;18.216;2023-11-21T04:54:15;7.80;;;3.20;;
57313;SDS011;53202;50.976;18.216;2023-11-21T04:55:16;5.50;;;3.00;;
57313;SDS011;53202;50.976;18.216;2023-11-21T04:56:17;10.40;;;3.10;;
57313;SDS011;53202;50.976;18.216;2023-11-21T04:57:18;15.30;;;2.60;;
57313;SDS011;53202;50.976;18.216;2023-11-21T04:58:19;10.20;;;2.70;;
57313;SDS011;53202;50.976;18.216;2023-11-21T04:59:21;8.30;;;3.60;;
57313;SDS011;53202;50.976;18.216;2023-11-21T05:00:25;12.40;;;3.90;;
57313;SDS011;53202;50.976;18.216;2023-11-21T05:01:26;8.50;;;4.00;;
57313;SDS011;53202;50.976;18.216;2023-11-21T05:02:27;10.10;;;5.10;;
57313;SDS011;53202;50.976;18.216;2023-11-21T05:03:28;6.30;;;3.90;;
57313;SDS011;53202;50.976;18.216;2023-11-21T05:04:30;13.70;;;4.80;;
57313;SDS011;53202;50.976;18.216;2023-11-21T05:05:31;11.10;;;4.30;;
57313;SDS011;53202;50.976;18.216;2023-11-21T05:06:32;10.70;;;4.50;;
57313;SDS011;53202;50.976;18.216;2023-11-21T05:07:33;9.00;;;5.00;;
57313;SDS011;53202;50.976;18.216;2023-11-21T05:08:35;16.50;;;4.80;;
57313;SDS011;53202;50.976;18.216;2023-11-21T05:09:40;11.50;;;6.00;;
57313;SDS011;53202;50.976;18.216;2023-11-21T05:10:44;10.80;;;5.80;;
57313;SDS011;53202;50.976;18.216;2023-11-21T05:11:45;14.40;;;6.40;;
57313;SDS011;53202;50.976;18.216;2023-11-21T05:12:48;12.10;;;5.70;;
57313;SDS011;53202;50.976;18.216;2023-11-21T05:13:50;19.30;;;8.20;;
57313;SDS011;53202;50.976;18.216;2023-11-21T05:14:51;15.80;;;9.00;;
57313;SDS011;53202;50.976;18.216;2023-11-21T05:15:53;14.70;;;6.10;;
57313;SDS011;53202;50.976;18.216;2023-11-21T05:16:55;15.10;;;6.50;;
57313;SDS011;53202;50.976;18.216;2023-11-21T05:17:56;10.20;;;6.30;;
57313;SDS011;53202;50.976;18.216;2023-11-21T05:19:00;11.30;;;6.10;;
57313;SDS011;53202;50.976;18.216;2023-11-21T05:20:01;17.40;;;6.00;;
57313;SDS011;53202;50.976;18.216;2023-11-21T05:21:04;16.60;;;6.90;;
57313;SDS011;53202;50.976;18.216;2023-11-21T05:22:05;10.40;;;5.60;;
57313;SDS011;53202;50.976;18.216;2023-11-21T05:23:07;10.20;;;5.90;;
57313;SDS011;53202;50.976;18.216;2023-11-21T05:24:08;16.40;;;5.70;;
57313;SDS011;53202;50.976;18.216;2023-11-21T05:25:09;9.90;;;4.50;;
57313;SDS011;53202;50.976;18.216;2023-11-21T05:26:11;8.20;;;4.30;;
57313;SDS011;53202;50.976;18.216;2023-11-21T05:27:12;12.20;;;5.10;;
57313;SDS011;53202;50.976;18.216;2023-11-21T05:28:14;11.50;;;4.70;;
57313;SDS011;53202;50.976;18.216;2023-11-21T05:29:15;8.30;;;4.70;;
57313;SDS011;53202;50.976;18.216;2023-11-21T05:30:16;12.60;;;5.90;;
57313;SDS011;53202;50.976;18.216;2023-11-21T05:31:17;10.40;;;5.40;;
57313;SDS011;53202;50.976;18.216;2023-11-21T05:32:18;11.40;;;5.30;;
57313;SDS011;53202;50.976;18.216;2023-11-21T05:33:19;9.90;;;6.00;;
57313;SDS011;53202;50.976;18.216;2023-11-21T05:34:20;13.90;;;6.00;;
57313;SDS011;53202;50.976;18.216;2023-11-21T05:35:24;19.00;;;5.60;;
57313;SDS011;53202;50.976;18.216;2023-11-21T05:36:25;11.40;;;5.50;;
57313;SDS011;53202;50.976;18.216;2023-11-21T05:37:26;12.00;;;5.10;;
57313;SDS011;53202;50.976;18.216;2023-11-21T05:38:27;12.70;;;6.60;;
57313;SDS011;53202;50.976;18.216;2023-11-21T05:39:29;11.20;;;5.60;;
57313;SDS011;53202;50.976;18.216;2023-11-21T05:40:30;9.70;;;6.00;;
57313;SDS011;53202;50.976;18.216;2023-11-21T05:41:30;14.10;;;5.20;;
57313;SDS011;53202;50.976;18.216;2023-11-21T05:42:32;11.20;;;5.60;;
57313;SDS011;53202;50.976;18.216;2023-11-21T05:43:34;13.10;;;5.70;;
57313;SDS011;53202;50.976;18.216;2023-11-21T05:44:36;8.80;;;5.10;;
57313;SDS011;53202;50.976;18.216;2023-11-21T05:45:37;10.30;;;5.30;;
57313;SDS011;53202;50.976;18.216;2023-11-21T05:46:38;9.60;;;4.00;;
57313;SDS011;53202;50.976;18.216;2023-11-21T05:47:41;5.60;;;3.30;;
57313;SDS011;53202;50.976;18.216;2023-11-21T05:48:43;10.30;;;4.40;;
57313;SDS011;53202;50.976;18.216;2023-11-21T05:49:44;13.50;;;5.40;;
57313;SDS011;53202;50.976;18.216;2023-11-21T05:50:46;14.50;;;6.10;;
57313;SDS011;53202;50.976;18.216;2023-11-21T05:51:48;12.10;;;5.60;;
57313;SDS011;53202;50.976;18.216;2023-11-21T05:52:49;13.70;;;6.70;;
57313;SDS011;53202;50.976;18.216;2023-11-21T05:53:50;22.50;;;8.40;;
57313;SDS011;53202;50.976;18.216;2023-11-21T05:54:51;21.00;;;9.30;;
57313;SDS011;53202;50.976;18.216;2023-11-21T05:55:52;19.60;;;9.90;;
57313;SDS011;53202;50.976;18.216;2023-11-21T05:56:53;20.00;;;8.50;;
57313;SDS011;53202;50.976;18.216;2023-11-21T05:57:54;16.10;;;7.50;;
57313;SDS011;53202;50.976;18.216;2023-11-21T05:58:55;12.30;;;6.40;;
57313;SDS011;53202;50.976;18.216;2023-11-21T05:59:56;11.50;;;6.70;;
57313;SDS011;53202;50.976;18.216;2023-11-21T06:00:57;16.00;;;7.90;;
57313;SDS011;53202;50.976;18.216;2023-11-21T06:01:58;23.40;;;12.20;;